Spring Gap, Maryland
Current Conditions -  °F | °C
As of 1:38 AM on Monday 26 Jan 2015 (Local Time) from KCBE Reporting Station
Overcast Overcast  
Wind Chill: 36°   Ceiling: 1100
Heat Index: 36°   Visibility: 7mi
Dew Point: 34°   Wind: 0mph
Humidity: 93%   Direction: NA
Pressure: 29.82"   Gusts: NA
Location:  39.56°N, 78.72°W
Report Text: KCBE 260638Z AUTO 00000KT 7SM OVC011 02/01 A2982 RMK AO1
Loading
Personal Weather Stations






























Interactive Weather Map New forecast layout! Learn more

10-Day Weather Forecast

Advertisements
Track Severe Weather on mobile